createdAt,value
2018-11-02T00:02:26.308Z,72.20
2018-11-02T00:04:54.664Z,72.10
2018-11-02T00:07:22.995Z,72.20
2018-11-02T00:09:51.339Z,72.10
2018-11-02T00:12:19.759Z,72.10
2018-11-02T00:14:48.017Z,72.10
2018-11-02T00:17:16.353Z,72.20
2018-11-02T00:19:44.681Z,72.20
2018-11-02T00:22:13.036Z,72.20
2018-11-02T00:24:43.022Z,72.30
2018-11-02T00:27:11.347Z,72.30
2018-11-02T00:29:39.687Z,72.30
2018-11-02T00:32:08.094Z,72.10
2018-11-02T00:34:36.338Z,72.20
2018-11-02T00:37:04.710Z,72.20
2018-11-02T00:39:33.029Z,72.10
2018-11-02T00:42:01.411Z,72.20
2018-11-02T00:44:29.720Z,71.40
2018-11-02T00:46:58.092Z,71.40
2018-11-02T00:49:26.415Z,71.80
2018-11-02T00:51:54.731Z,72.10
2018-11-02T00:54:23.084Z,72.20
2018-11-02T00:56:51.395Z,71.40
2018-11-02T00:59:19.727Z,71.10
2018-11-02T01:01:48.065Z,71.00
2018-11-02T01:04:16.391Z,70.90
2018-11-02T01:06:44.707Z,71.00
2018-11-02T01:09:13.079Z,70.30
2018-11-02T01:11:41.449Z,69.60
2018-11-02T01:14:09.809Z,69.00
2018-11-02T01:16:38.198Z,69.10
2018-11-02T01:19:06.444Z,69.10
2018-11-02T01:21:34.959Z,68.80
2018-11-02T01:24:03.767Z,68.30
2018-11-02T01:26:32.093Z,68.40
2018-11-02T01:29:00.428Z,68.40
2018-11-02T01:31:28.795Z,68.40
2018-11-02T01:33:57.127Z,68.00
2018-11-02T01:36:25.842Z,68.30
2018-11-02T01:38:54.205Z,68.40
2018-11-02T01:41:22.505Z,68.50
2018-11-02T01:43:50.823Z,68.20
2018-11-02T01:46:19.178Z,68.60
2018-11-02T01:48:47.559Z,68.80
2018-11-02T01:51:15.899Z,68.50
2018-11-02T01:53:44.237Z,68.20
2018-11-02T01:56:12.531Z,68.00
2018-11-02T01:58:40.877Z,67.80
2018-11-02T02:01:09.205Z,68.00
2018-11-02T02:03:37.699Z,67.70
2018-11-02T02:06:06.058Z,68.10
2018-11-02T02:08:34.359Z,67.80
2018-11-02T02:11:02.711Z,68.00
2018-11-02T02:13:31.031Z,68.10
2018-11-02T02:15:59.813Z,68.10
2018-11-02T02:18:28.183Z,68.20
2018-11-02T02:20:56.619Z,68.40
2018-11-02T02:23:25.021Z,68.50
2018-11-02T02:25:53.369Z,68.60
2018-11-02T02:28:21.665Z,68.60
2018-11-02T02:30:49.997Z,69.00
2018-11-02T02:33:18.377Z,69.10
2018-11-02T02:35:46.704Z,69.00
2018-11-02T02:38:15.017Z,70.70
2018-11-02T02:40:43.335Z,70.70
2018-11-02T02:43:11.648Z,71.40
2018-11-02T02:45:40.013Z,71.90
2018-11-02T02:48:08.363Z,71.90
2018-11-02T02:50:36.685Z,71.70
2018-11-02T02:53:05.061Z,71.60
2018-11-02T02:55:33.399Z,71.80
2018-11-02T02:58:01.749Z,72.00
2018-11-02T03:00:30.045Z,72.60
2018-11-02T03:03:00.085Z,72.00
2018-11-02T03:05:28.440Z,71.80
2018-11-02T03:07:56.772Z,70.40
2018-11-02T03:10:25.138Z,70.00
2018-11-02T03:12:53.423Z,70.40
2018-11-02T03:15:21.756Z,72.90
2018-11-02T03:17:50.054Z,73.90
2018-11-02T03:20:18.357Z,74.00
2018-11-02T03:22:46.659Z,74.00
2018-11-02T03:25:14.986Z,73.90
2018-11-02T03:27:43.327Z,73.80
2018-11-02T03:30:12.278Z,73.70
2018-11-02T03:32:40.851Z,73.50
2018-11-02T03:35:09.547Z,73.50
2018-11-02T03:37:37.857Z,73.10
2018-11-02T03:40:07.466Z,73.00
2018-11-02T03:42:35.818Z,73.10
2018-11-02T03:45:04.173Z,73.20
2018-11-02T03:47:32.522Z,72.90
2018-11-02T03:50:00.914Z,73.00
2018-11-02T03:52:29.266Z,73.10
2018-11-02T03:54:58.512Z,73.00
2018-11-02T03:57:26.846Z,73.00
2018-11-02T03:59:55.174Z,73.00
2018-11-02T04:02:23.484Z,73.10
2018-11-02T04:04:51.818Z,73.00
2018-11-02T04:07:20.188Z,73.00
2018-11-02T04:09:48.498Z,72.90
2018-11-02T04:12:16.820Z,72.90
2018-11-02T04:14:45.574Z,72.60
2018-11-02T04:17:13.904Z,72.50
2018-11-02T04:19:42.254Z,72.30
2018-11-02T04:22:10.562Z,72.10
2018-11-02T04:24:38.888Z,71.40
2018-11-02T04:27:07.471Z,71.30
2018-11-02T04:29:35.824Z,71.50
2018-11-02T04:32:04.218Z,71.70
2018-11-02T04:34:32.534Z,71.70
2018-11-02T04:37:00.821Z,71.70
2018-11-02T04:39:29.148Z,71.80
2018-11-02T04:41:57.484Z,72.30
2018-11-02T04:44:25.808Z,72.60
2018-11-02T04:46:54.126Z,72.50
2018-11-02T04:49:22.424Z,72.50
2018-11-02T04:51:50.758Z,72.60
2018-11-02T04:54:25.858Z,72.90
2018-11-02T04:56:54.162Z,72.80
2018-11-02T04:59:22.479Z,72.70
2018-11-02T05:01:50.804Z,73.20
2018-11-02T05:04:19.167Z,72.50
2018-11-02T05:06:47.659Z,72.70
2018-11-02T05:09:15.970Z,72.50
2018-11-02T05:11:44.334Z,72.20
2018-11-02T05:14:12.722Z,72.30
2018-11-02T05:16:41.070Z,72.30
2018-11-02T05:19:09.446Z,73.00
2018-11-02T05:21:37.769Z,72.40
2018-11-02T05:24:06.168Z,72.60
2018-11-02T05:26:34.534Z,72.80
2018-11-02T05:29:02.838Z,73.20
2018-11-02T05:31:31.153Z,74.00
2018-11-02T05:33:59.460Z,74.80
2018-11-02T05:36:27.800Z,75.20
2018-11-02T05:38:56.100Z,74.60
2018-11-02T05:41:24.451Z,74.30
2018-11-02T05:43:52.772Z,74.00
2018-11-02T05:46:21.098Z,74.30
2018-11-02T05:48:49.480Z,75.00
2018-11-02T05:51:17.781Z,75.80
2018-11-02T05:53:46.101Z,76.10
2018-11-02T05:56:14.430Z,76.40
2018-11-02T05:58:42.786Z,76.00
2018-11-02T06:01:11.085Z,75.80
2018-11-02T06:03:39.402Z,75.60
2018-11-02T06:06:07.778Z,75.60
2018-11-02T06:08:36.145Z,75.60
2018-11-02T06:11:04.786Z,75.50
2018-11-02T06:13:33.169Z,75.20
2018-11-02T06:16:01.445Z,75.20
2018-11-02T06:18:29.980Z,75.60
2018-11-02T06:20:58.281Z,75.70
2018-11-02T06:23:26.599Z,76.00
2018-11-02T06:25:54.930Z,75.80
2018-11-02T06:28:23.251Z,75.70
2018-11-02T06:30:51.598Z,75.50
2018-11-02T06:33:19.939Z,75.40
2018-11-02T06:35:48.280Z,75.20
2018-11-02T06:38:16.603Z,74.60
2018-11-02T06:40:44.959Z,74.00
2018-11-02T06:43:13.272Z,73.50
2018-11-02T06:45:41.568Z,72.90
2018-11-02T06:48:09.941Z,72.40
2018-11-02T06:50:38.448Z,72.20
2018-11-02T06:53:06.773Z,71.80
2018-11-02T06:55:35.123Z,72.20
2018-11-02T06:58:03.487Z,72.70
2018-11-02T07:00:32.029Z,73.00
2018-11-02T07:03:00.299Z,73.20
2018-11-02T07:05:28.677Z,72.90
2018-11-02T07:07:57.129Z,73.00
2018-11-02T07:10:25.415Z,73.00
2018-11-02T07:12:53.803Z,73.30
2018-11-02T07:15:22.157Z,73.00
2018-11-02T07:17:50.501Z,73.10
2018-11-02T07:20:18.839Z,73.30
2018-11-02T07:22:47.226Z,73.30
2018-11-02T07:25:15.905Z,73.30
2018-11-02T07:27:44.184Z,73.30
2018-11-02T07:30:12.721Z,73.30
2018-11-02T07:32:41.101Z,73.40
2018-11-02T07:35:10.413Z,73.40
2018-11-02T07:37:39.325Z,73.40
2018-11-02T07:40:10.653Z,73.50
2018-11-02T07:42:39.201Z,73.50
2018-11-02T07:45:08.245Z,73.80
2018-11-02T07:47:36.733Z,74.00
2018-11-02T07:50:06.610Z,74.60
2018-11-02T07:52:34.956Z,74.80
2018-11-02T07:55:03.366Z,74.80
2018-11-02T07:57:31.721Z,74.90
2018-11-02T08:00:00.091Z,75.00
2018-11-02T08:02:28.511Z,75.10
2018-11-02T08:04:56.908Z,75.50
2018-11-02T08:07:25.257Z,75.90
2018-11-02T08:09:53.631Z,76.20
2018-11-02T08:12:21.963Z,76.50
2018-11-02T08:14:50.275Z,76.50
2018-11-02T08:17:18.611Z,76.50
2018-11-02T08:19:46.964Z,76.60
2018-11-02T08:22:15.313Z,76.80
2018-11-02T08:24:43.670Z,77.10
2018-11-02T08:27:12.016Z,77.40
2018-11-02T08:29:40.965Z,77.70
2018-11-02T08:32:09.471Z,78.60
2018-11-02T08:34:37.769Z,78.10
2018-11-02T08:37:06.385Z,78.40
2018-11-02T08:39:34.743Z,78.50
2018-11-02T08:42:03.133Z,78.60
2018-11-02T08:44:31.504Z,78.60
2018-11-02T08:46:59.896Z,78.40
2018-11-02T08:49:28.227Z,78.30
2018-11-02T08:51:56.628Z,78.00
2018-11-02T08:54:25.034Z,77.00
2018-11-02T08:56:53.484Z,76.10
2018-11-02T08:59:21.978Z,75.80
2018-11-02T09:01:50.313Z,74.40
2018-11-02T09:04:18.689Z,72.10
2018-11-02T09:06:47.056Z,72.10
2018-11-02T09:09:15.392Z,72.00
2018-11-02T09:11:43.715Z,71.30
2018-11-02T09:14:12.068Z,69.60
2018-11-02T09:16:40.421Z,68.90
2018-11-02T09:19:08.801Z,68.00
2018-11-02T09:21:37.136Z,67.00
2018-11-02T09:24:05.802Z,68.20
2018-11-02T09:26:34.136Z,66.30
2018-11-02T09:29:02.536Z,66.40
2018-11-02T09:31:30.931Z,64.40
2018-11-02T09:33:59.273Z,64.80
2018-11-02T09:36:27.642Z,65.40
2018-11-02T09:38:55.950Z,65.50
2018-11-02T09:41:24.292Z,64.80
2018-11-02T09:43:52.618Z,65.70
2018-11-02T09:46:20.945Z,64.50
2018-11-02T09:48:49.338Z,62.30
2018-11-02T09:51:17.778Z,62.30
2018-11-02T09:53:46.087Z,62.30
2018-11-02T09:56:14.414Z,63.50
2018-11-02T09:58:42.767Z,62.50
2018-11-02T10:01:11.159Z,62.30
2018-11-02T10:03:39.569Z,62.50
2018-11-02T10:06:07.889Z,61.30
2018-11-02T10:08:36.284Z,59.00
2018-11-02T10:11:04.713Z,57.00
2018-11-02T10:13:33.083Z,57.10
2018-11-02T10:16:01.440Z,57.80
2018-11-02T10:18:29.799Z,56.60
2018-11-02T10:20:58.173Z,56.20
2018-11-02T10:23:26.531Z,54.30
2018-11-02T10:25:54.968Z,51.20
2018-11-02T10:28:23.380Z,52.20
2018-11-02T10:30:51.789Z,48.10
2018-11-02T10:33:20.332Z,47.60
2018-11-02T10:35:49.421Z,47.90
2018-11-02T10:38:17.777Z,47.60
2018-11-02T10:40:51.557Z,48.00
2018-11-02T10:43:20.681Z,47.70
2018-11-02T10:45:54.981Z,49.40
2018-11-02T10:48:24.517Z,49.80
2018-11-02T10:50:53.189Z,49.50
2018-11-02T10:53:21.589Z,49.70
2018-11-02T10:55:50.175Z,50.10
2018-11-02T10:58:18.563Z,50.70
2018-11-02T11:00:52.527Z,51.00
2018-11-02T11:03:21.195Z,51.90
2018-11-02T11:05:49.691Z,51.50
2018-11-02T11:08:18.151Z,51.20
2018-11-02T11:10:46.524Z,52.50
2018-11-02T11:13:15.244Z,52.90
2018-11-02T11:15:43.271Z,50.60
2018-11-02T11:18:11.644Z,50.00
2018-11-02T11:20:39.980Z,47.80
2018-11-02T11:23:08.365Z,49.20
2018-11-02T11:25:36.775Z,46.30
2018-11-02T11:28:05.460Z,47.50
2018-11-02T11:30:33.845Z,48.40
2018-11-02T11:33:02.202Z,48.50
2018-11-02T11:35:30.580Z,45.70
2018-11-02T11:37:58.896Z,47.10
2018-11-02T11:40:27.297Z,45.20
2018-11-02T11:42:55.647Z,45.50
2018-11-02T11:45:24.040Z,44.10
2018-11-02T11:47:52.400Z,45.50
2018-11-02T11:50:22.268Z,47.10
2018-11-02T11:52:51.691Z,48.30
2018-11-02T11:55:20.254Z,48.00
2018-11-02T11:57:48.660Z,48.40
2018-11-02T12:00:18.969Z,45.50
2018-11-02T12:02:48.156Z,47.80
2018-11-02T12:05:17.846Z,45.60
2018-11-02T12:07:46.226Z,45.50
2018-11-02T12:10:19.928Z,44.70
2018-11-02T12:12:48.238Z,41.80
2018-11-02T12:15:17.963Z,39.50
2018-11-02T12:17:46.793Z,39.20
2018-11-02T12:20:16.692Z,39.10
2018-11-02T12:22:46.064Z,40.80
2018-11-02T12:25:15.071Z,40.40
2018-11-02T12:27:43.432Z,41.90
2018-11-02T12:30:16.332Z,42.80
2018-11-02T12:32:44.660Z,40.40
2018-11-02T12:35:14.320Z,41.40
2018-11-02T12:37:42.724Z,41.90
2018-11-02T12:40:12.720Z,42.20
2018-11-02T12:42:41.668Z,42.90
2018-11-02T12:45:11.929Z,42.70
2018-11-02T12:47:40.699Z,42.60
2018-11-02T12:50:13.012Z,42.50
2018-11-02T12:52:41.595Z,40.20
2018-11-02T12:55:10.637Z,39.50
2018-11-02T12:57:40.276Z,40.10
2018-11-02T13:00:12.503Z,39.90
2018-11-02T13:02:41.408Z,40.90
2018-11-02T13:05:10.307Z,41.80
2018-11-02T13:07:38.999Z,41.40
2018-11-02T13:10:08.644Z,42.00
2018-11-02T13:12:36.991Z,42.90
2018-11-02T13:15:06.523Z,42.40
2018-11-02T13:17:35.690Z,42.40
2018-11-02T13:20:04.459Z,41.30
2018-11-02T13:22:32.809Z,42.10
2018-11-02T13:25:01.151Z,40.60
2018-11-02T13:27:29.564Z,39.30
2018-11-02T13:29:58.103Z,39.20
2018-11-02T13:32:26.458Z,37.40
2018-11-02T13:34:54.901Z,39.10
2018-11-02T13:37:23.400Z,40.60
2018-11-02T13:39:51.922Z,40.80
2018-11-02T13:42:20.729Z,41.80
2018-11-02T13:44:49.096Z,41.80
2018-11-02T13:47:18.011Z,41.30
2018-11-02T13:49:46.428Z,41.10
2018-11-02T13:52:14.811Z,39.80
2018-11-02T13:54:43.166Z,39.50
2018-11-02T13:57:11.534Z,38.80
2018-11-02T13:59:39.983Z,37.50
2018-11-02T14:02:09.228Z,36.60
2018-11-02T14:04:37.887Z,39.60
2018-11-02T14:07:06.442Z,37.70
2018-11-02T14:09:34.908Z,37.00
2018-11-02T14:12:03.260Z,37.60
2018-11-02T14:14:31.818Z,38.50
2018-11-02T14:17:00.304Z,40.00
2018-11-02T14:19:28.761Z,38.30
2018-11-02T14:21:57.172Z,36.80
2018-11-02T14:24:25.675Z,37.20
2018-11-02T14:26:54.124Z,36.40
2018-11-02T14:29:22.623Z,35.60
2018-11-02T14:31:51.072Z,36.10
2018-11-02T14:34:19.553Z,34.70
2018-11-02T14:36:48.015Z,35.20
2018-11-02T14:39:16.517Z,35.90
2018-11-02T14:41:45.162Z,36.40
2018-11-02T14:44:13.585Z,36.40
2018-11-02T14:46:42.144Z,36.30
2018-11-02T14:49:10.496Z,35.90
2018-11-02T14:51:39.014Z,36.70
2018-11-02T14:54:07.478Z,37.90
2018-11-02T14:56:35.974Z,39.10
2018-11-02T14:59:04.596Z,37.40
2018-11-02T15:01:33.065Z,37.80
2018-11-02T15:04:01.705Z,37.30
2018-11-02T15:06:30.112Z,38.20
2018-11-02T15:08:58.588Z,38.60
2018-11-02T15:11:27.187Z,39.70
2018-11-02T15:13:55.630Z,39.00
2018-11-02T15:16:23.995Z,40.60
2018-11-02T15:18:52.393Z,41.30
2018-11-02T15:21:20.735Z,43.50
2018-11-02T15:23:49.073Z,42.70
2018-11-02T15:26:17.498Z,43.30
2018-11-02T15:28:45.787Z,44.60
2018-11-02T15:31:14.159Z,43.50
2018-11-02T15:33:42.578Z,44.40
2018-11-02T15:36:11.079Z,44.50
2018-11-02T15:38:39.477Z,44.70
2018-11-02T15:41:07.805Z,45.90
2018-11-02T15:43:36.171Z,47.50
2018-11-02T15:46:04.548Z,49.40
2018-11-02T15:48:32.927Z,50.10
2018-11-02T15:51:01.288Z,50.50
2018-11-02T15:53:29.714Z,51.50
2018-11-02T15:55:58.066Z,52.30
2018-11-02T15:58:26.430Z,52.50
2018-11-02T16:00:54.790Z,53.50
2018-11-02T16:03:23.161Z,54.70
2018-11-02T16:05:51.490Z,55.00
2018-11-02T16:08:19.881Z,54.70
2018-11-02T16:10:48.256Z,54.90
2018-11-02T16:13:16.628Z,55.60
2018-11-02T16:15:44.997Z,55.60
2018-11-02T16:18:13.419Z,55.90
2018-11-02T16:20:41.772Z,55.80
2018-11-02T16:23:10.150Z,56.00
2018-11-02T16:25:38.513Z,56.40
2018-11-02T16:28:06.865Z,56.70
2018-11-02T16:30:35.197Z,56.80
2018-11-02T16:33:03.598Z,57.40
2018-11-02T16:35:31.962Z,58.00
2018-11-02T16:38:00.337Z,57.90
2018-11-02T16:40:28.721Z,58.30
2018-11-02T16:42:57.044Z,58.50
2018-11-02T16:45:25.459Z,58.20
2018-11-02T16:47:53.895Z,58.30
2018-11-02T16:50:22.297Z,58.40
2018-11-02T16:52:50.600Z,58.40
2018-11-02T16:55:19.026Z,58.20
2018-11-02T16:57:47.417Z,58.30
2018-11-02T17:00:17.774Z,58.30
2018-11-02T17:02:47.265Z,57.20
2018-11-02T17:05:15.938Z,56.70
2018-11-02T17:07:44.430Z,57.50
2018-11-02T17:10:13.825Z,57.30
2018-11-02T17:12:42.702Z,58.10
2018-11-02T17:15:12.040Z,57.00
2018-11-02T17:17:40.432Z,57.00
2018-11-02T17:20:11.551Z,56.40
2018-11-02T17:22:40.114Z,56.10
2018-11-02T17:25:09.311Z,56.50
2018-11-02T17:27:38.308Z,57.20
2018-11-02T17:30:08.136Z,57.00
2018-11-02T17:32:36.480Z,57.30
2018-11-02T17:35:04.914Z,58.20
2018-11-02T17:37:33.296Z,58.20
2018-11-02T17:40:01.698Z,58.20
2018-11-02T17:42:30.037Z,58.40
2018-11-02T17:44:58.867Z,58.90
2018-11-02T17:47:27.287Z,59.50
2018-11-02T17:49:55.854Z,60.70
2018-11-02T17:52:24.774Z,61.00
2018-11-02T17:54:53.088Z,60.70
2018-11-02T17:57:21.400Z,60.30
2018-11-02T17:59:49.776Z,60.40
2018-11-02T18:02:18.133Z,60.30
2018-11-02T18:04:46.513Z,60.10
2018-11-02T18:07:14.873Z,60.00
2018-11-02T18:09:43.241Z,60.00
2018-11-02T18:12:11.619Z,60.10
2018-11-02T18:14:40.021Z,60.10
2018-11-02T18:17:08.303Z,60.50
2018-11-02T18:19:36.671Z,60.50
2018-11-02T18:22:05.227Z,60.80
2018-11-02T18:24:33.964Z,60.60
2018-11-02T18:27:02.319Z,60.70
2018-11-02T18:29:30.906Z,60.70
2018-11-02T18:31:59.256Z,60.30
2018-11-02T18:34:27.621Z,59.10
2018-11-02T18:36:56.060Z,58.90
2018-11-02T18:39:24.766Z,58.70
2018-11-02T18:41:53.101Z,57.50
2018-11-02T18:44:21.475Z,57.60
2018-11-02T18:46:49.847Z,57.20
2018-11-02T18:49:18.297Z,57.20
2018-11-02T18:51:46.610Z,56.80
2018-11-02T18:54:15.087Z,53.90
2018-11-02T18:56:43.449Z,53.60
2018-11-02T18:59:11.781Z,53.00
2018-11-02T19:01:40.146Z,53.80
2018-11-02T19:04:08.487Z,53.70
2018-11-02T19:06:36.833Z,52.90
2018-11-02T19:09:07.917Z,54.20
2018-11-02T19:11:36.305Z,53.30
2018-11-02T19:14:04.809Z,53.30
2018-11-02T19:16:33.187Z,53.80
2018-11-02T19:19:01.590Z,54.00
2018-11-02T19:21:29.927Z,54.70
2018-11-02T19:23:58.562Z,53.30
2018-11-02T19:26:27.311Z,53.50
2018-11-02T19:28:56.020Z,54.10
2018-11-02T19:31:24.392Z,53.50
2018-11-02T19:33:52.821Z,53.80
2018-11-02T19:36:21.164Z,53.70
2018-11-02T19:38:49.601Z,52.70
2018-11-02T19:41:17.923Z,53.50
2018-11-02T19:43:46.310Z,54.00
2018-11-02T19:46:14.700Z,53.80
2018-11-02T19:48:43.395Z,53.90
2018-11-02T19:51:11.735Z,53.90
2018-11-02T19:53:40.394Z,54.80
2018-11-02T19:56:08.658Z,54.70
2018-11-02T19:58:37.041Z,55.40
2018-11-02T20:01:05.633Z,58.30
2018-11-02T20:03:33.959Z,59.10
2018-11-02T20:06:02.370Z,56.70
2018-11-02T20:08:30.759Z,55.40
2018-11-02T20:10:59.144Z,55.30
2018-11-02T20:13:27.971Z,55.50
2018-11-02T20:15:56.414Z,55.90
2018-11-02T20:18:24.804Z,55.50
2018-11-02T20:20:53.259Z,55.90
2018-11-02T20:23:21.970Z,56.40
2018-11-02T20:25:50.308Z,56.70
2018-11-02T20:28:18.673Z,57.10
2018-11-02T20:30:47.069Z,57.40
2018-11-02T20:33:15.468Z,57.70
2018-11-02T20:35:43.847Z,57.60
2018-11-02T20:38:12.176Z,58.00
2018-11-02T20:40:40.548Z,58.20
2018-11-02T20:43:08.913Z,58.60
2018-11-02T20:45:37.302Z,58.80
2018-11-02T20:48:05.883Z,58.90
2018-11-02T20:50:34.297Z,58.60
2018-11-02T20:53:03.637Z,58.50
2018-11-02T20:55:31.983Z,58.20
2018-11-02T20:58:00.383Z,57.90
2018-11-02T21:00:28.748Z,57.60
2018-11-02T21:02:57.117Z,57.80
2018-11-02T21:05:26.481Z,58.00
2018-11-02T21:07:54.995Z,58.00
2018-11-02T21:10:24.199Z,58.00
2018-11-02T21:12:52.639Z,58.00
2018-11-02T21:15:22.376Z,58.00
2018-11-02T21:17:51.123Z,57.70
2018-11-02T21:20:20.828Z,57.80
2018-11-02T21:22:49.193Z,58.00
2018-11-02T21:25:17.608Z,57.90
2018-11-02T21:27:46.758Z,57.90
2018-11-02T21:30:20.028Z,57.30
2018-11-02T21:32:49.038Z,57.30
2018-11-02T21:35:17.996Z,57.10
2018-11-02T21:37:46.632Z,57.20
2018-11-02T21:40:19.068Z,57.70
2018-11-02T21:42:47.498Z,58.10
2018-11-02T21:45:17.194Z,57.70
2018-11-02T21:47:45.815Z,57.50
2018-11-02T21:50:14.508Z,57.60
2018-11-02T21:52:43.294Z,57.90
2018-11-02T21:55:11.700Z,58.30
2018-11-02T21:57:40.196Z,58.40
2018-11-02T22:00:15.290Z,58.60
2018-11-02T22:02:43.821Z,58.90
2018-11-02T22:05:12.982Z,59.00
2018-11-02T22:07:42.190Z,58.90
2018-11-02T22:10:11.510Z,59.30
2018-11-02T22:12:39.852Z,59.20
2018-11-02T22:15:09.004Z,59.40
2018-11-02T22:17:37.371Z,59.30
2018-11-02T22:20:07.304Z,59.60
2018-11-02T22:22:35.719Z,59.80
2018-11-02T22:25:04.153Z,60.00
2018-11-02T22:27:32.526Z,59.50
2018-11-02T22:30:00.862Z,60.50
2018-11-02T22:32:29.240Z,59.90
2018-11-02T22:34:57.600Z,59.60
2018-11-02T22:37:25.912Z,59.40
2018-11-02T22:39:54.248Z,59.40
2018-11-02T22:42:22.594Z,59.60
2018-11-02T22:44:50.966Z,59.80
2018-11-02T22:47:19.323Z,59.90
2018-11-02T22:49:47.688Z,59.60
2018-11-02T22:52:16.025Z,59.70
2018-11-02T22:54:44.360Z,58.70
2018-11-02T22:57:12.705Z,58.80
2018-11-02T22:59:41.314Z,58.90
2018-11-02T23:02:14.160Z,58.80
2018-11-02T23:04:42.501Z,58.90
2018-11-02T23:07:11.038Z,59.00
2018-11-02T23:09:39.456Z,59.10
2018-11-02T23:12:07.825Z,59.30
2018-11-02T23:14:36.170Z,59.60
2018-11-02T23:17:04.501Z,60.50
2018-11-02T23:19:33.655Z,60.50
2018-11-02T23:22:02.034Z,61.00
2018-11-02T23:24:30.360Z,61.30
2018-11-02T23:26:58.687Z,61.60
2018-11-02T23:29:27.109Z,61.90
2018-11-02T23:31:55.388Z,62.20
2018-11-02T23:34:23.715Z,62.40
2018-11-02T23:36:52.027Z,62.20
2018-11-02T23:39:20.388Z,62.60
2018-11-02T23:41:48.795Z,62.80
2018-11-02T23:44:17.116Z,63.00
2018-11-02T23:46:45.711Z,63.20
2018-11-02T23:49:14.032Z,63.30
2018-11-02T23:51:42.375Z,63.30
2018-11-02T23:54:10.728Z,63.30
2018-11-02T23:56:39.075Z,63.40
2018-11-02T23:59:07.425Z,63.30
